Rechercher aéroport 
image banner adimage banner ad
image banner ad

DFFD - Ouagadougou

Situé à Ouagadougou, Burkina Faso

ICAO - DFFD, IATA - OUA

Données fournies par Airmate  

Information générale

Coordonnées: N12°21'13" W1°30'43"
Élévation : 1038 feet MSL.
 
Évalué:
Voir évaluations: [VIEW]


Voir autres Aéroports à Kadiogo

Données opérationnelles

Accessible au public
Heure actuelle UTC:
Heure actuelle locale:
Météo
METAR: DFFD 021700Z 24009KT 210V280 CAVOK 36/21 Q1010 NOSIG
TAF: TAF DFFD 021100Z 0212/0318 22010KT 9999 FEW026 PROB30 TEMPO 0216/0224 4000 TSRA SCT026 FEW036CB
Voir NOTAMs / SUP AIP / TFR affectant cet aéroport [VIEW]
Fréquences de communication: [VIEW]

Pistes:

Identifiant RWYQFULongueur (ft)Largeur (ft)SurfaceLDA (ft)
0433°9843148
22213°9843148

Coordonnées de l'aéroport

Adresse: Ouagadougou Burkina Faso

Vue satellite de DFFD